createdAt,value
2022-12-01T00:01:20.773Z,20.45
2022-12-01T00:03:48.035Z,22.02
2022-12-01T00:06:17.258Z,21.92
2022-12-01T00:09:04.456Z,22.40
2022-12-01T00:11:32.868Z,21.15
2022-12-01T00:14:01.716Z,21.33
2022-12-01T00:16:28.968Z,21.55
2022-12-01T00:18:56.411Z,20.15
2022-12-01T00:21:24.797Z,21.50
2022-12-01T00:23:54.600Z,21.35
2022-12-01T00:26:22.852Z,20.90
2022-12-01T00:28:58.074Z,22.17
2022-12-01T00:31:25.718Z,21.75
2022-12-01T00:33:53.106Z,21.05
2022-12-01T00:36:21.433Z,21.92
2022-12-01T00:38:52.815Z,20.63
2022-12-01T00:41:20.323Z,21.55
2022-12-01T00:43:47.499Z,20.08
2022-12-01T00:46:14.627Z,21.25
2022-12-01T00:48:41.973Z,20.80
2022-12-01T00:51:09.029Z,20.42
2022-12-01T00:53:35.986Z,21.33
2022-12-01T00:56:03.159Z,21.02
2022-12-01T00:58:30.129Z,21.90
2022-12-01T01:00:59.341Z,21.83
2022-12-01T01:03:27.274Z,20.08
2022-12-01T01:05:54.214Z,21.60
2022-12-01T01:08:21.330Z,21.63
2022-12-01T01:10:49.079Z,21.77
2022-12-01T01:13:17.163Z,19.88
2022-12-01T01:15:44.086Z,20.88
2022-12-01T01:18:12.254Z,20.92
2022-12-01T01:20:39.540Z,22.45
2022-12-01T01:23:07.243Z,20.27
2022-12-01T01:25:34.163Z,21.33
2022-12-01T01:28:01.222Z,20.25
2022-12-01T01:30:28.514Z,20.33
2022-12-01T01:32:55.617Z,21.88
2022-12-01T01:35:22.891Z,20.42
2022-12-01T01:37:51.124Z,20.85
2022-12-01T01:40:18.885Z,20.17
2022-12-01T01:42:46.527Z,19.83
2022-12-01T01:45:25.905Z,20.63
2022-12-01T01:47:56.071Z,19.80
2022-12-01T01:50:26.674Z,20.83
2022-12-01T01:53:08.110Z,21.00
2022-12-01T01:55:36.349Z,21.13
2022-12-01T01:58:08.621Z,21.02
2022-12-01T02:00:38.476Z,20.73
2022-12-01T02:03:05.477Z,22.13
2022-12-01T02:05:34.932Z,21.02
2022-12-01T02:08:03.781Z,20.80
2022-12-01T02:10:52.667Z,21.80
2022-12-01T02:13:33.817Z,21.13
2022-12-01T02:16:19.475Z,21.27
2022-12-01T02:19:10.657Z,21.08
2022-12-01T02:21:47.142Z,22.27
2022-12-01T02:24:14.013Z,21.20
2022-12-01T02:26:49.271Z,22.17
2022-12-01T02:29:43.868Z,21.40
2022-12-01T02:32:29.990Z,21.55
2022-12-01T02:35:13.028Z,20.58
2022-12-01T02:37:50.139Z,20.83
2022-12-01T02:40:20.002Z,21.52
2022-12-01T02:43:07.977Z,21.33
2022-12-01T02:45:43.823Z,23.08
2022-12-01T02:48:24.981Z,21.88
2022-12-01T02:50:53.748Z,20.98
2022-12-01T02:53:20.994Z,21.90
2022-12-01T02:55:53.224Z,21.67
2022-12-01T02:58:21.205Z,21.63
2022-12-01T03:01:08.471Z,20.90
2022-12-01T03:03:46.233Z,22.63
2022-12-01T03:06:31.877Z,21.58
2022-12-01T03:09:10.865Z,22.83
2022-12-01T03:11:51.736Z,22.42
2022-12-01T03:14:26.710Z,20.77
2022-12-01T03:16:54.688Z,20.98
2022-12-01T03:19:26.611Z,21.15
2022-12-01T03:22:05.248Z,21.83
2022-12-01T03:24:34.353Z,21.95
2022-12-01T03:27:04.125Z,23.48
2022-12-01T03:29:37.053Z,22.83
2022-12-01T03:32:10.576Z,22.33
2022-12-01T03:34:43.700Z,23.38
2022-12-01T03:37:25.232Z,23.48
2022-12-01T03:40:00.476Z,23.17
2022-12-01T03:42:40.684Z,22.15
2022-12-01T03:45:18.173Z,23.30
2022-12-01T03:47:46.138Z,22.95
2022-12-01T03:50:14.402Z,22.65
2022-12-01T03:52:48.719Z,22.30
2022-12-01T03:55:31.478Z,22.58
2022-12-01T03:58:15.128Z,22.52
2022-12-01T04:00:43.979Z,22.90
2022-12-01T04:03:18.825Z,22.08
2022-12-01T04:05:46.518Z,23.58
2022-12-01T04:08:13.462Z,23.90
2022-12-01T04:10:40.350Z,24.65
2022-12-01T04:13:12.266Z,25.75
2022-12-01T04:15:39.283Z,25.63
2022-12-01T04:18:06.239Z,25.92
2022-12-01T04:20:33.236Z,23.85
2022-12-01T04:23:00.241Z,24.80
2022-12-01T04:25:27.244Z,24.25
2022-12-01T04:27:54.104Z,24.58
2022-12-01T04:30:21.067Z,25.08
2022-12-01T04:32:47.964Z,22.70
2022-12-01T04:35:14.972Z,23.05
2022-12-01T04:37:42.062Z,24.08
2022-12-01T04:40:10.113Z,23.40
2022-12-01T04:42:37.054Z,23.75
2022-12-01T04:45:04.396Z,24.13
2022-12-01T04:47:31.412Z,25.08
2022-12-01T04:49:58.474Z,24.42
2022-12-01T04:52:26.695Z,23.83
2022-12-01T04:54:56.359Z,24.73
2022-12-01T04:57:23.278Z,25.60
2022-12-01T04:59:50.364Z,25.77
2022-12-01T05:02:17.775Z,25.30
2022-12-01T05:04:48.209Z,25.70
2022-12-01T05:07:15.242Z,27.42
2022-12-01T05:09:42.390Z,27.67
2022-12-01T05:12:10.263Z,27.90
2022-12-01T05:14:37.185Z,46.17
2022-12-01T05:17:04.152Z,27.63
2022-12-01T05:19:49.716Z,28.05
2022-12-01T05:22:16.850Z,28.38
2022-12-01T05:24:43.729Z,27.15
2022-12-01T05:27:10.810Z,28.65
2022-12-01T05:29:37.746Z,26.95
2022-12-01T05:32:05.096Z,27.95
2022-12-01T05:34:32.066Z,28.40
2022-12-01T05:36:59.053Z,26.50
2022-12-01T05:39:26.009Z,27.73
2022-12-01T05:41:54.111Z,29.30
2022-12-01T05:44:21.060Z,28.23
2022-12-01T05:46:48.088Z,27.17
2022-12-01T05:49:15.217Z,28.20
2022-12-01T05:51:43.975Z,28.20
2022-12-01T05:54:11.032Z,27.60
2022-12-01T05:56:38.087Z,25.88
2022-12-01T05:59:05.059Z,33.53
2022-12-01T06:01:32.022Z,27.83
2022-12-01T06:03:59.145Z,25.75
2022-12-01T06:06:26.218Z,25.95
2022-12-01T06:08:53.106Z,25.38
2022-12-01T06:11:20.146Z,25.40
2022-12-01T06:13:47.276Z,25.85
2022-12-01T06:16:14.360Z,25.50
2022-12-01T06:18:41.375Z,24.88
2022-12-01T06:21:08.339Z,25.98
2022-12-01T06:23:36.101Z,26.25
2022-12-01T06:26:03.613Z,26.92
2022-12-01T06:28:30.689Z,26.23
2022-12-01T06:31:02.776Z,31.70
2022-12-01T06:33:31.738Z,26.70
2022-12-01T06:36:04.409Z,26.05
2022-12-01T06:38:33.609Z,25.13
2022-12-01T06:41:01.133Z,26.90
2022-12-01T06:43:28.666Z,28.10
2022-12-01T06:46:01.185Z,28.27
2022-12-01T06:48:29.673Z,27.52
2022-12-01T06:51:01.354Z,25.73
2022-12-01T06:53:29.265Z,25.42
2022-12-01T06:56:06.178Z,26.08
2022-12-01T06:58:34.980Z,25.98
2022-12-01T07:01:09.291Z,26.77
2022-12-01T07:03:36.425Z,29.17
2022-12-01T07:06:04.054Z,28.52
2022-12-01T07:08:32.427Z,28.08
2022-12-01T07:11:05.387Z,27.88
2022-12-01T07:13:34.025Z,27.77
2022-12-01T07:16:05.196Z,27.75
2022-12-01T07:18:33.559Z,26.27
2022-12-01T07:21:01.680Z,27.40
2022-12-01T07:23:29.156Z,25.63
2022-12-01T07:26:04.792Z,26.70
2022-12-01T07:28:32.694Z,27.05
2022-12-01T07:31:08.353Z,27.77
2022-12-01T07:33:36.142Z,26.30
2022-12-01T07:36:04.608Z,27.05
2022-12-01T07:38:32.840Z,26.98
2022-12-01T07:41:14.134Z,27.83
2022-12-01T07:43:41.782Z,26.40
2022-12-01T07:46:17.239Z,26.20
2022-12-01T07:48:49.076Z,26.25
2022-12-01T07:51:17.054Z,26.25
2022-12-01T07:53:45.965Z,25.77
2022-12-01T07:56:13.491Z,26.55
2022-12-01T07:58:40.650Z,25.00
2022-12-01T08:01:09.062Z,26.13
2022-12-01T08:03:36.851Z,26.35
2022-12-01T08:06:04.846Z,24.67
2022-12-01T08:08:33.918Z,25.75
2022-12-01T08:11:04.872Z,25.05
2022-12-01T08:13:32.334Z,24.50
2022-12-01T08:15:59.321Z,25.05
2022-12-01T08:18:26.364Z,25.27
2022-12-01T08:20:58.430Z,24.02
2022-12-01T08:23:25.504Z,26.10
2022-12-01T08:25:55.767Z,24.73
2022-12-01T08:28:22.878Z,25.33
2022-12-01T08:30:50.016Z,25.55
2022-12-01T08:33:17.063Z,26.83
2022-12-01T08:35:44.083Z,26.25
2022-12-01T08:38:11.434Z,25.63
2022-12-01T08:40:38.596Z,25.48
2022-12-01T08:43:05.846Z,25.48
2022-12-01T08:45:32.953Z,24.73
2022-12-01T08:48:00.148Z,24.08
2022-12-01T08:50:28.163Z,24.80
2022-12-01T08:52:55.367Z,24.95
2022-12-01T08:55:22.807Z,23.85
2022-12-01T08:57:49.797Z,23.83
2022-12-01T09:00:16.999Z,23.73
2022-12-01T09:02:43.887Z,24.55
2022-12-01T09:05:11.051Z,24.33
2022-12-01T09:07:38.003Z,22.55
2022-12-01T09:10:05.901Z,22.58
2022-12-01T09:12:33.086Z,23.13
2022-12-01T09:15:00.105Z,23.35
2022-12-01T09:17:28.575Z,24.00
2022-12-01T09:19:55.654Z,24.05
2022-12-01T09:22:22.926Z,24.77
2022-12-01T09:24:49.891Z,22.50
2022-12-01T09:27:16.807Z,22.42
2022-12-01T09:29:43.792Z,24.75
2022-12-01T09:32:10.818Z,24.83
2022-12-01T09:34:37.794Z,24.63
2022-12-01T09:37:05.341Z,22.15
2022-12-01T09:39:32.325Z,22.48
2022-12-01T09:42:08.848Z,21.63
2022-12-01T09:44:45.476Z,22.67
2022-12-01T09:47:21.271Z,22.15
2022-12-01T09:50:12.684Z,22.90
2022-12-01T09:52:57.832Z,22.02
2022-12-01T09:55:26.515Z,22.40
2022-12-01T09:57:58.900Z,21.63
2022-12-01T10:00:30.461Z,21.58
2022-12-01T10:03:06.978Z,22.23
2022-12-01T10:06:18.592Z,21.70
2022-12-01T10:08:39.757Z,21.50
2022-12-01T10:11:37.534Z,20.70
2022-12-01T10:14:06.633Z,22.10
2022-12-01T10:16:38.939Z,22.33
2022-12-01T10:19:15.803Z,21.92
2022-12-01T10:21:58.054Z,21.38
2022-12-01T10:24:40.845Z,21.73
2022-12-01T10:27:26.737Z,21.92
2022-12-01T10:30:05.683Z,23.38
2022-12-01T10:32:43.825Z,20.70
2022-12-01T10:35:17.595Z,21.60
2022-12-01T10:37:46.420Z,20.08
2022-12-01T10:40:15.763Z,21.33
2022-12-01T10:42:48.763Z,21.42
2022-12-01T10:48:15.864Z,19.05
2022-12-01T10:50:44.056Z,20.63
2022-12-01T10:53:23.259Z,19.30
2022-12-01T10:56:02.973Z,19.83
2022-12-01T10:58:33.957Z,20.10
2022-12-01T11:01:04.926Z,19.10
2022-12-01T11:03:35.236Z,20.13
2022-12-01T11:06:05.090Z,18.63
2022-12-01T11:08:46.423Z,20.10
2022-12-01T11:11:30.745Z,18.48
2022-12-01T11:14:01.525Z,18.90
2022-12-01T11:16:47.717Z,18.35
2022-12-01T11:19:26.811Z,19.98
2022-12-01T11:21:58.386Z,19.00
2022-12-01T11:24:29.636Z,18.45
2022-12-01T11:26:58.970Z,18.95
2022-12-01T11:29:32.130Z,19.65
2022-12-01T11:32:01.350Z,20.00
2022-12-01T11:34:31.676Z,19.00
2022-12-01T11:37:02.958Z,18.77
2022-12-01T11:39:41.536Z,18.10
2022-12-01T11:42:28.705Z,17.35
2022-12-01T11:45:20.521Z,18.30
2022-12-01T11:48:17.807Z,20.48
2022-12-01T11:51:01.883Z,19.83
2022-12-01T11:53:29.057Z,19.95
2022-12-01T11:56:23.873Z,20.00
2022-12-01T11:58:57.812Z,19.63
2022-12-01T12:01:46.777Z,20.80
2022-12-01T12:04:32.123Z,20.13
2022-12-01T12:07:24.821Z,19.65
2022-12-01T12:09:52.003Z,20.23
2022-12-01T12:12:38.032Z,19.85
2022-12-01T12:15:32.657Z,20.02
2022-12-01T12:18:05.903Z,20.55
2022-12-01T12:20:38.757Z,19.85
2022-12-01T12:23:11.808Z,20.05
2022-12-01T12:25:48.176Z,21.33
2022-12-01T12:28:43.166Z,20.73
2022-12-01T12:31:28.877Z,20.58
2022-12-01T12:34:05.131Z,21.10
2022-12-01T12:36:41.240Z,20.30
2022-12-01T12:39:36.750Z,21.52
2022-12-01T12:42:15.056Z,20.40
2022-12-01T12:45:02.525Z,20.10
2022-12-01T12:47:50.164Z,20.83
2022-12-01T12:50:30.615Z,21.75
2022-12-01T19:50:53.437Z,42.85
2022-12-01T19:53:22.422Z,44.25
2022-12-01T19:55:50.394Z,44.95
2022-12-01T19:58:17.876Z,46.15
2022-12-01T20:00:46.666Z,46.90
2022-12-01T20:03:14.284Z,48.30
2022-12-01T20:05:41.874Z,45.50
2022-12-01T20:08:13.651Z,44.63
2022-12-01T20:10:48.789Z,41.45
2022-12-01T20:13:16.354Z,42.42
2022-12-01T20:15:44.440Z,41.13
2022-12-01T20:18:15.288Z,40.33
2022-12-01T20:20:42.841Z,39.63
2022-12-01T20:23:10.403Z,39.70
2022-12-01T20:25:39.414Z,38.63
2022-12-01T20:28:06.519Z,40.92
2022-12-01T20:30:34.870Z,41.97
2022-12-01T20:33:04.064Z,40.83
2022-12-01T20:35:34.000Z,39.63
2022-12-01T20:38:01.216Z,37.47
2022-12-01T20:40:28.716Z,37.90
2022-12-01T20:42:56.182Z,37.92
2022-12-01T20:45:24.086Z,38.78
2022-12-01T20:47:51.545Z,43.50
2022-12-01T20:50:22.134Z,38.10
2022-12-01T20:52:49.805Z,35.03
2022-12-01T20:55:17.385Z,35.58
2022-12-01T20:57:44.678Z,35.72
2022-12-01T21:00:14.045Z,37.40
2022-12-01T21:02:41.134Z,37.72
2022-12-01T21:05:08.559Z,34.63
2022-12-01T21:07:36.174Z,34.75
2022-12-01T21:10:04.737Z,35.75
2022-12-01T21:12:51.238Z,34.75
2022-12-01T21:15:25.788Z,35.78
2022-12-01T21:18:00.885Z,36.72
2022-12-01T21:20:57.555Z,37.92
2022-12-01T21:23:27.228Z,34.40
2022-12-01T21:25:55.472Z,35.65
2022-12-01T21:28:24.872Z,34.90
2022-12-01T21:31:02.172Z,36.55
2022-12-01T21:33:34.502Z,35.78
2022-12-01T21:36:02.827Z,34.33
2022-12-01T21:38:32.076Z,34.50
2022-12-01T21:40:59.194Z,35.53
2022-12-01T21:43:26.433Z,37.30
2022-12-01T21:45:58.205Z,37.72
2022-12-01T21:48:25.152Z,37.75
2022-12-01T21:51:10.504Z,37.17
2022-12-01T21:53:39.304Z,38.15
2022-12-01T21:56:15.311Z,40.47
2022-12-01T21:58:44.229Z,41.97
2022-12-01T22:01:21.164Z,41.17
2022-12-01T22:03:48.501Z,43.25
2022-12-01T22:06:43.463Z,44.35
2022-12-01T22:09:22.252Z,43.13
2022-12-01T22:12:08.627Z,44.40
2022-12-01T22:14:36.922Z,45.65
2022-12-01T22:17:06.885Z,48.03
2022-12-01T22:19:37.824Z,49.65
2022-12-01T22:22:27.338Z,51.08
2022-12-01T22:25:00.320Z,47.28
2022-12-01T22:27:33.050Z,50.50
2022-12-01T22:30:10.510Z,50.73
2022-12-01T22:32:59.510Z,48.42
2022-12-01T22:35:46.424Z,48.35
2022-12-01T22:38:49.479Z,47.83
2022-12-01T22:41:19.510Z,46.75
2022-12-01T22:43:55.681Z,49.63
2022-12-01T22:46:25.992Z,48.55
2022-12-01T22:48:55.923Z,45.83
2022-12-01T22:51:27.701Z,44.15
2022-12-01T22:54:00.574Z,43.50
2022-12-01T22:56:32.837Z,43.13
2022-12-01T22:58:59.938Z,43.13
2022-12-01T23:01:30.480Z,44.00
2022-12-01T23:04:15.635Z,46.83
2022-12-01T23:06:54.597Z,49.42
2022-12-01T23:09:23.930Z,50.28
2022-12-01T23:12:05.945Z,55.00
2022-12-01T23:14:33.738Z,49.63
2022-12-01T23:17:12.528Z,51.28
2022-12-01T23:19:39.486Z,50.20
2022-12-01T23:22:06.450Z,48.03
2022-12-01T23:24:34.319Z,45.55
2022-12-01T23:27:01.988Z,43.72
2022-12-01T23:29:30.581Z,41.42
2022-12-01T23:31:57.754Z,41.17
2022-12-01T23:34:24.921Z,40.40
2022-12-01T23:36:52.018Z,39.55
2022-12-01T23:39:23.473Z,37.70
2022-12-01T23:41:51.565Z,37.13
2022-12-01T23:44:45.757Z,38.25
2022-12-01T23:47:19.849Z,38.60
2022-12-01T23:49:48.203Z,38.30
2022-12-01T23:52:20.035Z,38.22
2022-12-01T23:54:47.213Z,36.15
2022-12-01T23:57:23.752Z,36.28
2022-12-01T23:59:55.232Z,36.70
